Time;durP1;ratioP1;P1;durP2;ratioP2;P2;SDS_P1;SDS_P2;PMS_P1;PMS_P2;Temp;Humidity;BMP_temperature;BMP_pressure;BME280_temperature;BME280_humidity;BME280_pressure;Samples;Min_cycle;Max_cycle;Signal;HPM_P1;HPM_P2
2023/10/26 00:00:24;;;;;;;13.83;7.73;;;;;;;9.64;100.00;98711.47;6124847;28;20052;-74
2023/10/26 00:03:19;;;;;;;13.45;7.38;;;;;;;9.57;100.00;98706.91;6137321;28;20059;-74
2023/10/26 00:06:14;;;;;;;15.27;8.30;;;;;;;9.71;100.00;98720.28;6123388;28;20054;-73
2023/10/26 00:09:10;;;;;;;12.70;7.23;;;;;;;9.67;100.00;98719.84;6122633;28;20051;-73
2023/10/26 00:12:05;;;;;;;14.60;8.10;;;;;;;9.63;100.00;98709.81;6140961;28;20270;-74
2023/10/26 00:15:01;;;;;;;13.25;6.35;;;;;;;9.67;100.00;98721.69;6135925;28;20034;-74
2023/10/26 00:17:56;;;;;;;12.70;6.72;;;;;;;9.64;100.00;98716.75;6132409;28;20529;-74
2023/10/26 00:20:59;;;;;;;13.43;7.13;;;;;;;9.64;100.00;98716.75;6126311;28;20032;-75
2023/10/26 00:23:54;;;;;;;13.00;5.90;;;;;;;9.64;100.00;98722.88;6140350;28;20024;-74
2023/10/26 00:26:55;;;;;;;11.60;6.27;;;;;;;9.63;100.00;98720.41;6138446;28;20447;-76
2023/10/26 00:29:51;;;;;;;12.93;6.75;;;;;;;9.56;100.00;98710.59;6141635;28;20475;-74
2023/10/26 00:32:46;;;;;;;10.65;6.35;;;;;;;9.57;100.00;98720.16;6141405;28;20028;-74
2023/10/26 00:35:41;;;;;;;13.47;7.30;;;;;;;9.54;100.00;98711.75;6138748;28;20068;-75
2023/10/26 00:38:37;;;;;;;10.83;5.43;;;;;;;9.54;100.00;98707.28;6122141;28;20074;-75
2023/10/26 00:41:32;;;;;;;11.37;6.00;;;;;;;9.57;100.00;98704.28;6122112;28;20482;-74
2023/10/26 00:44:27;;;;;;;12.13;6.60;;;;;;;9.55;100.00;98703.66;6122474;28;20325;-75
2023/10/26 00:47:24;;;;;;;10.83;6.47;;;;;;;9.58;100.00;98716.50;6128339;28;20452;-73
2023/10/26 00:50:20;;;;;;;11.10;6.13;;;;;;;9.61;100.00;98717.97;6132792;28;20494;-76
2023/10/26 00:53:16;;;;;;;12.02;5.07;;;;;;;9.62;100.00;98721.44;6142240;28;20028;-74
2023/10/26 00:56:12;;;;;;;13.40;5.50;;;;;;;9.57;100.00;98717.50;6106525;28;20032;-74
2023/10/26 00:59:08;;;;;;;10.57;6.00;;;;;;;9.62;100.00;98729.38;6139777;28;20024;-72
2023/10/26 01:02:04;;;;;;;10.50;5.32;;;;;;;9.61;100.00;98717.13;6112678;28;20119;-72
2023/10/26 01:04:59;;;;;;;10.13;5.50;;;;;;;9.62;100.00;98729.38;6110895;28;20032;-72
2023/10/26 01:07:54;;;;;;;8.77;5.17;;;;;;;9.59;100.00;98720.78;6124398;28;20025;-72
2023/10/26 01:10:50;;;;;;;8.00;4.80;;;;;;;9.50;100.00;98711.34;6131454;28;20024;-73
2023/10/26 01:13:45;;;;;;;10.93;5.47;;;;;;;9.58;100.00;98720.97;6121806;28;20031;-72
2023/10/26 01:16:40;;;;;;;13.83;5.80;;;;;;;9.54;100.00;98717.06;6130180;28;20020;-72
2023/10/26 01:19:41;;;;;;;7.37;4.50;;;;;;;9.51;100.00;98718.25;6130176;28;20309;-72
2023/10/26 01:22:36;;;;;;;11.55;6.00;;;;;;;9.56;100.00;98715.06;6131225;28;20111;-72
2023/10/26 01:25:32;;;;;;;13.30;5.90;;;;;;;9.58;100.00;98723.63;6125003;28;20075;-74
2023/10/26 01:28:27;;;;;;;10.00;5.50;;;;;;;9.53;100.00;98721.56;6129502;28;20028;-74
2023/10/26 01:31:23;;;;;;;9.90;5.73;;;;;;;9.55;100.00;98718.69;6138428;28;20375;-75
2023/10/26 01:34:18;;;;;;;11.10;5.95;;;;;;;9.50;100.00;98711.34;6132271;28;20263;-74
2023/10/26 01:37:13;;;;;;;9.90;5.43;;;;;;;9.50;100.00;98713.16;6140597;28;20063;-73
2023/10/26 01:40:10;;;;;;;10.90;5.68;;;;;;;9.51;100.00;98723.53;6131827;28;20548;-75
2023/10/26 01:43:05;;;;;;;9.05;5.50;;;;;;;9.50;100.00;98721.94;6139307;28;20031;-74
2023/10/26 01:46:01;;;;;;;11.15;5.95;;;;;;;9.49;100.00;98724.75;6136890;28;20399;-74
2023/10/26 01:48:56;;;;;;;14.73;7.63;;;;;;;9.46;100.00;98711.88;6134284;28;20046;-75
2023/10/26 01:51:51;;;;;;;11.33;5.93;;;;;;;9.54;100.00;98725.00;6129277;28;20037;-74
2023/10/26 01:54:47;;;;;;;12.23;6.30;;;;;;;9.53;100.00;98721.56;6130502;28;20039;-72
2023/10/26 01:57:42;;;;;;;12.48;6.75;;;;;;;9.50;100.00;98716.63;6135251;28;20064;-74
2023/10/26 02:00:37;;;;;;;13.07;6.63;;;;;;;9.53;100.00;98721.56;6135896;28;20144;-73
2023/10/26 02:03:33;;;;;;;9.90;6.13;;;;;;;9.52;100.00;98714.59;6139422;28;20044;-73
2023/10/26 02:06:28;;;;;;;11.77;6.10;;;;;;;9.48;100.00;98713.34;6142165;28;20020;-74
2023/10/26 02:09:24;;;;;;;13.18;7.20;;;;;;;9.47;100.00;98710.88;6138324;28;20105;-74
2023/10/26 02:12:20;;;;;;;12.03;6.70;;;;;;;9.49;100.00;98699.09;6128798;28;20641;-75
2023/10/26 02:15:16;;;;;;;11.68;6.80;;;;;;;9.54;100.00;98719.69;6138913;28;20270;-73
2023/10/26 02:18:11;;;;;;;12.45;6.93;;;;;;;9.52;100.00;98719.91;6134329;28;20028;-73
2023/10/26 02:21:06;;;;;;;14.23;6.63;;;;;;;9.42;100.00;98698.25;6131960;28;20024;-74
2023/10/26 02:24:02;;;;;;;12.50;6.53;;;;;;;9.46;100.00;98696.84;6126990;28;20032;-73
2023/10/26 02:26:57;;;;;;;13.70;7.13;;;;;;;9.45;100.00;98700.50;6133817;28;20086;-74
2023/10/26 02:29:52;;;;;;;12.60;6.77;;;;;;;9.51;100.00;98714.81;6123654;28;20032;-74
2023/10/26 02:32:47;;;;;;;14.47;8.03;;;;;;;9.51;100.00;98717.47;6128457;28;20151;-73
2023/10/26 02:35:43;;;;;;;17.20;8.10;;;;;;;9.46;100.00;98712.72;6132941;28;20433;-73
2023/10/26 02:38:40;;;;;;;15.73;7.77;;;;;;;9.43;100.00;98713.09;6132310;28;20036;-74
2023/10/26 02:41:36;;;;;;;14.60;7.10;;;;;;;9.43;100.00;98721.03;6134604;28;20510;-74
2023/10/26 02:44:31;;;;;;;15.98;7.18;;;;;;;9.41;100.00;98712.47;6135463;28;20535;-76
2023/10/26 02:47:27;;;;;;;15.97;8.50;;;;;;;9.46;100.00;98733.06;6130624;28;20058;-75
2023/10/26 02:50:22;;;;;;;14.27;7.27;;;;;;;9.50;100.00;98735.16;6127630;28;20025;-75
2023/10/26 02:53:17;;;;;;;13.70;6.80;;;;;;;9.52;100.00;98735.78;6131492;28;20315;-75
2023/10/26 02:56:13;;;;;;;13.18;6.72;;;;;;;9.51;100.00;98722.75;6127718;28;20036;-74
2023/10/26 02:59:08;;;;;;;13.00;7.27;;;;;;;9.55;100.00;98727.47;6135065;28;20044;-74
2023/10/26 03:02:05;;;;;;;14.00;6.57;;;;;;;9.51;100.00;98725.41;6135039;28;20142;-75
2023/10/26 03:05:01;;;;;;;14.27;6.88;;;;;;;9.33;100.00;98707.28;6113369;28;20529;-74
2023/10/26 03:07:56;;;;;;;13.30;6.97;;;;;;;9.54;100.00;98733.75;6131780;28;20079;-76
2023/10/26 03:10:51;;;;;;;14.63;7.40;;;;;;;9.47;100.00;98740.00;6132790;28;20032;-74
2023/10/26 03:13:47;;;;;;;14.53;7.20;;;;;;;9.45;100.00;98742.84;6123947;28;20017;-73
2023/10/26 03:16:42;;;;;;;11.43;6.00;;;;;;;9.46;100.00;98730.41;6127244;28;20107;-74
2023/10/26 03:19:37;;;;;;;13.32;5.82;;;;;;;9.51;100.00;98741.28;6122832;28;20461;-73
2023/10/26 03:22:34;;;;;;;12.30;6.77;;;;;;;9.47;100.00;98721.47;6106942;28;20037;-74
2023/10/26 03:25:29;;;;;;;13.55;6.25;;;;;;;9.53;100.00;98729.50;6125926;28;20032;-73
2023/10/26 03:28:24;;;;;;;12.53;6.27;;;;;;;9.45;100.00;98737.53;6132764;28;20028;-74
2023/10/26 03:31:20;;;;;;;11.97;6.27;;;;;;;9.52;100.00;98741.06;6134715;28;20037;-73
2023/10/26 03:34:15;;;;;;;15.50;7.07;;;;;;;9.45;100.00;98732.25;6124457;28;20024;-74
2023/10/26 03:37:10;;;;;;;13.60;6.87;;;;;;;9.45;100.00;98729.59;6126390;28;20032;-74
2023/10/26 03:40:06;;;;;;;15.43;7.77;;;;;;;9.47;100.00;98737.34;6128247;28;20017;-74
2023/10/26 03:43:02;;;;;;;14.07;7.47;;;;;;;9.45;100.00;98734.06;6139033;28;20279;-73
2023/10/26 03:45:58;;;;;;;16.10;8.00;;;;;;;9.40;100.00;98728.53;6127215;28;20024;-74
2023/10/26 03:48:53;;;;;;;16.47;7.77;;;;;;;9.39;100.00;98733.00;6139856;28;20066;-73
2023/10/26 03:51:48;;;;;;;18.43;8.33;;;;;;;9.34;100.00;98726.63;6133361;28;20448;-74
2023/10/26 03:54:44;;;;;;;16.80;7.43;;;;;;;9.37;100.00;98732.38;6135087;28;20478;-74
2023/10/26 03:57:39;;;;;;;16.80;8.45;;;;;;;9.29;100.00;98724.56;6131993;28;20035;-74
2023/10/26 04:00:34;;;;;;;16.23;7.53;;;;;;;9.38;100.00;98734.00;6135430;28;20064;-73
2023/10/26 04:03:30;;;;;;;19.43;8.80;;;;;;;9.34;100.00;98727.44;6123258;28;20495;-73
2023/10/26 04:06:25;;;;;;;19.20;8.67;;;;;;;9.34;100.00;98734.56;6123680;28;20078;-73
2023/10/26 04:09:20;;;;;;;16.13;7.93;;;;;;;9.27;100.00;98726.53;6139169;28;20031;-74
2023/10/26 04:12:16;;;;;;;16.47;8.17;;;;;;;9.30;100.00;98741.22;6136727;28;20063;-72
2023/10/26 04:15:11;;;;;;;18.17;8.40;;;;;;;9.24;100.00;98726.91;6108243;28;20020;-75
2023/10/26 04:18:06;;;;;;;17.27;7.83;;;;;;;9.30;100.00;98736.75;6133689;28;20039;-73
2023/10/26 04:21:02;;;;;;;19.67;8.33;;;;;;;9.25;100.00;98735.66;6121251;28;20107;-72
2023/10/26 04:23:58;;;;;;;19.35;8.38;;;;;;;9.19;100.00;98724.00;6131789;28;20028;-72
2023/10/26 04:26:53;;;;;;;18.73;7.88;;;;;;;9.22;100.00;98726.28;6138594;28;20059;-72
2023/10/26 04:29:48;;;;;;;18.67;7.43;;;;;;;9.22;100.00;98725.47;6123850;28;20431;-72
2023/10/26 04:32:44;;;;;;;20.60;8.57;;;;;;;9.22;100.00;98730.75;6126196;28;20502;-72
2023/10/26 04:35:46;;;;;;;18.50;8.18;;;;;;;9.25;100.00;98739.13;6125123;28;20068;-72
2023/10/26 04:38:42;;;;;;;15.68;6.85;;;;;;;9.22;100.00;98728.09;6135891;28;20028;-72
2023/10/26 04:41:37;;;;;;;14.47;6.90;;;;;;;9.27;100.00;98738.94;6135467;28;20075;-72
2023/10/26 04:44:32;;;;;;;15.03;7.27;;;;;;;9.24;100.00;98734.84;6131294;28;20083;-72
2023/10/26 04:47:28;;;;;;;16.08;7.53;;;;;;;9.29;100.00;98745.72;6124322;28;20282;-72
2023/10/26 04:50:23;;;;;;;15.20;6.57;;;;;;;9.26;100.00;98746.06;6122204;28;20075;-72
2023/10/26 04:53:18;;;;;;;12.03;7.23;;;;;;;9.22;100.00;98736.88;6125016;28;20087;-72
2023/10/26 04:56:14;;;;;;;13.77;7.27;;;;;;;9.32;100.00;98736.59;6123077;28;20278;-72
2023/10/26 04:59:09;;;;;;;17.87;6.83;;;;;;;9.30;100.00;98744.69;6121638;28;20025;-72
2023/10/26 05:02:04;;;;;;;13.57;6.57;;;;;;;9.22;100.00;98742.16;6121195;28;20446;-72
2023/10/26 05:05:00;;;;;;;16.17;7.93;;;;;;;9.27;100.00;98741.59;6121336;28;20032;-72
2023/10/26 05:07:55;;;;;;;16.67;7.80;;;;;;;9.23;100.00;98735.88;6122187;28;20529;-72
2023/10/26 05:10:50;;;;;;;13.60;6.77;;;;;;;9.20;100.00;98741.53;6126398;28;20036;-72
2023/10/26 05:13:47;;;;;;;13.90;6.60;;;;;;;9.30;100.00;98751.78;6125407;28;20064;-72
2023/10/26 05:16:43;;;;;;;15.23;6.70;;;;;;;9.25;100.00;98748.91;6121232;28;20487;-72
2023/10/26 05:19:38;;;;;;;11.77;5.70;;;;;;;9.21;100.00;98759.03;6120874;28;20028;-72
2023/10/26 05:22:34;;;;;;;13.20;6.80;;;;;;;9.32;100.00;98765.69;6120933;28;20502;-73
2023/10/26 05:25:30;;;;;;;13.63;6.03;;;;;;;9.25;100.00;98747.06;6121718;28;20044;-72
2023/10/26 05:28:25;;;;;;;11.07;5.65;;;;;;;9.31;100.00;98759.56;6126449;28;20258;-72
2023/10/26 05:31:20;;;;;;;10.40;5.70;;;;;;;9.27;100.00;98753.00;6123902;28;20035;-72
2023/10/26 05:34:15;;;;;;;10.70;5.37;;;;;;;9.31;100.00;98762.22;6128834;28;20036;-72
2023/10/26 05:37:11;;;;;;;12.00;6.37;;;;;;;9.33;100.00;98765.47;6129642;28;20036;-72
2023/10/26 05:40:08;;;;;;;9.53;4.67;;;;;;;9.37;100.00;98766.75;6125518;28;20390;-72
2023/10/26 05:43:03;;;;;;;9.80;4.55;;;;;;;9.32;100.00;98766.47;6122453;28;20454;-72
2023/10/26 05:46:03;;;;;;;9.37;4.37;;;;;;;9.28;100.00;98764.41;6123493;28;20035;-72
2023/10/26 05:48:58;;;;;;;8.68;4.25;;;;;;;9.32;100.00;98765.69;6126421;28;20286;-72
2023/10/26 05:51:57;;;;;;;9.20;3.87;;;;;;;9.37;100.00;98769.41;6119454;28;20036;-73
2023/10/26 05:54:53;;;;;;;7.50;3.72;;;;;;;9.41;100.00;98773.31;6120777;28;20147;-73
2023/10/26 05:57:49;;;;;;;8.75;4.55;;;;;;;9.34;100.00;98764.47;6125783;28;20039;-72
2023/10/26 06:00:44;;;;;;;8.10;3.93;;;;;;;9.34;100.00;98769.78;6120308;28;20567;-72
2023/10/26 06:03:39;;;;;;;7.47;3.77;;;;;;;9.33;100.00;98770.75;6121657;28;20464;-73
2023/10/26 06:06:35;;;;;;;6.63;3.40;;;;;;;9.32;100.00;98776.25;6121219;28;20684;-72
2023/10/26 06:09:30;;;;;;;8.37;4.53;;;;;;;9.28;100.00;98775.78;6127897;28;20029;-73
2023/10/26 06:12:25;;;;;;;7.13;3.97;;;;;;;9.29;100.00;98774.81;6119438;28;20036;-72
2023/10/26 06:15:21;;;;;;;6.83;3.50;;;;;;;9.33;100.00;98789.28;6124779;28;20432;-72
2023/10/26 06:18:16;;;;;;;6.95;3.63;;;;;;;9.31;100.00;98791.31;6129395;28;20460;-72
2023/10/26 06:21:13;;;;;;;14.80;4.00;;;;;;;9.30;100.00;98787.00;6120851;28;20037;-73
2023/10/26 06:24:08;;;;;;;7.00;3.20;;;;;;;9.34;100.00;98798.88;6125321;28;20749;-72
2023/10/26 06:27:04;;;;;;;6.88;2.85;;;;;;;9.42;100.00;98798.75;6131070;28;20032;-72
2023/10/26 06:29:59;;;;;;;11.43;4.07;;;;;;;9.44;100.00;98791.44;6133815;28;20035;-72
2023/10/26 06:32:54;;;;;;;7.80;3.80;;;;;;;9.41;100.00;98793.63;6125331;28;20062;-72
2023/10/26 06:35:50;;;;;;;7.10;3.30;;;;;;;9.41;100.00;98799.75;6124390;28;20108;-72
2023/10/26 06:38:45;;;;;;;6.50;3.67;;;;;;;9.40;100.00;98811.34;6127225;28;20045;-72
2023/10/26 06:41:40;;;;;;;5.60;3.43;;;;;;;9.34;100.00;98800.69;6124320;28;20025;-72
2023/10/26 06:44:39;;;;;;;4.97;2.70;;;;;;;9.42;100.00;98796.13;6129487;28;20331;-72
2023/10/26 06:47:34;;;;;;;9.50;3.10;;;;;;;9.53;100.00;98805.38;6125011;28;20029;-73
2023/10/26 06:50:29;;;;;;;5.63;3.50;;;;;;;9.47;100.00;98814.06;6124610;28;20204;-73
2023/10/26 06:53:25;;;;;;;6.93;3.43;;;;;;;9.43;100.00;98818.91;6129095;28;20047;-72
2023/10/26 06:56:20;;;;;;;14.10;7.33;;;;;;;9.30;100.00;98794.94;6132867;28;20036;-72
2023/10/26 06:59:15;;;;;;;7.27;3.50;;;;;;;9.42;100.00;98812.00;6124215;28;20374;-73
2023/10/26 07:02:12;;;;;;;8.73;5.40;;;;;;;9.42;100.00;98819.09;6126974;28;20540;-73
2023/10/26 07:05:07;;;;;;;6.10;3.55;;;;;;;9.41;100.00;98810.34;6130338;28;20024;-72
2023/10/26 07:08:03;;;;;;;5.05;2.90;;;;;;;9.42;100.00;98819.91;6127972;28;20035;-72
2023/10/26 07:10:59;;;;;;;7.95;5.75;;;;;;;9.52;100.00;98820.44;6133335;28;20032;-72
2023/10/26 07:13:54;;;;;;;5.57;2.80;;;;;;;9.48;100.00;98819.16;6127785;28;20038;-72
2023/10/26 07:16:49;;;;;;;5.30;3.03;;;;;;;9.50;100.00;98821.63;6123961;28;20025;-72
2023/10/26 07:19:45;;;;;;;5.05;2.40;;;;;;;9.42;100.00;98814.63;6123556;28;20017;-72
2023/10/26 07:22:42;;;;;;;6.37;3.47;;;;;;;9.54;100.00;98821.06;6131626;28;20040;-72
2023/10/26 07:25:38;;;;;;;5.70;2.70;;;;;;;9.57;100.00;98825.16;6123712;28;20029;-72
2023/10/26 07:28:33;;;;;;;5.82;2.97;;;;;;;9.52;100.00;98828.38;6126881;28;20760;-72
2023/10/26 07:31:29;;;;;;;5.67;2.53;;;;;;;9.55;100.00;98828.00;6134528;28;20031;-71
2023/10/26 07:34:24;;;;;;;4.90;2.93;;;;;;;9.56;100.00;98842.06;6126634;28;20274;-71
2023/10/26 07:37:20;;;;;;;4.07;2.58;;;;;;;9.57;100.00;98841.88;6125394;28;20111;-71
2023/10/26 07:40:16;;;;;;;5.60;2.90;;;;;;;9.55;100.00;98835.13;6123922;28;20055;-71
2023/10/26 07:43:11;;;;;;;4.43;2.38;;;;;;;9.64;100.00;98843.78;6126953;28;20048;-71
2023/10/26 07:46:06;;;;;;;3.87;2.50;;;;;;;9.51;100.00;98842.59;6129525;28;20028;-71
2023/10/26 07:49:02;;;;;;;5.10;3.03;;;;;;;9.50;100.00;98843.63;6128802;28;20032;-71
2023/10/26 07:51:58;;;;;;;4.28;2.40;;;;;;;9.57;100.00;98863.03;6122508;28;20302;-71
2023/10/26 07:54:53;;;;;;;5.03;2.50;;;;;;;9.52;100.00;98854.00;6123874;28;20377;-71
2023/10/26 07:57:48;;;;;;;4.73;2.90;;;;;;;9.54;100.00;98865.22;6107621;28;20420;-72
2023/10/26 08:00:44;;;;;;;4.60;2.73;;;;;;;9.48;100.00;98850.09;6122574;28;20036;-71
2023/10/26 08:03:39;;;;;;;4.88;2.40;;;;;;;9.47;100.00;98857.22;6127905;28;20434;-71
2023/10/26 08:06:35;;;;;;;5.10;3.05;;;;;;;9.46;100.00;98862.69;6130383;28;20052;-71
2023/10/26 08:09:33;;;;;;;5.10;2.83;;;;;;;9.57;100.00;98870.97;6124574;28;20131;-72
2023/10/26 08:12:29;;;;;;;6.00;2.60;;;;;;;9.73;100.00;98879.72;6129874;28;20047;-72
2023/10/26 08:15:24;;;;;;;5.80;2.97;;;;;;;9.62;100.00;98869.63;6129167;28;20044;-71
2023/10/26 08:18:19;;;;;;;5.30;2.67;;;;;;;9.63;100.00;98863.28;6126805;28;20056;-73
2023/10/26 08:21:15;;;;;;;7.73;3.00;;;;;;;9.56;100.00;98861.41;6124120;28;20388;-71
2023/10/26 08:24:10;;;;;;;10.07;4.10;;;;;;;9.67;100.00;98877.81;6133972;28;20274;-71
2023/10/26 08:27:05;;;;;;;5.80;3.00;;;;;;;9.67;100.00;98876.00;6124889;28;20056;-72
2023/10/26 08:30:01;;;;;;;8.33;4.43;;;;;;;9.52;100.00;98860.13;6125960;28;20118;-71
2023/10/26 08:32:56;;;;;;;8.65;3.88;;;;;;;9.67;100.00;98869.88;6122098;28;20107;-72
2023/10/26 08:35:51;;;;;;;5.50;3.00;;;;;;;9.65;100.00;98877.19;6122417;28;20400;-71
2023/10/26 08:38:47;;;;;;;7.83;3.73;;;;;;;9.72;100.00;98878.91;6121637;28;20034;-71
2023/10/26 08:41:48;;;;;;;37.67;12.03;;;;;;;9.62;100.00;98875.69;6128350;28;20037;-71
2023/10/26 08:44:43;;;;;;;12.48;5.82;;;;;;;9.76;100.00;98892.56;6129037;28;20337;-71
2023/10/26 08:47:41;;;;;;;9.32;4.55;;;;;;;9.88;100.00;98893.75;6126690;28;20116;-71
2023/10/26 08:50:37;;;;;;;11.57;6.38;;;;;;;9.94;100.00;98887.72;6122493;28;20033;-71
2023/10/26 08:53:34;;;;;;;4.85;2.88;;;;;;;9.77;100.00;98880.97;6120751;28;20059;-71
2023/10/26 08:56:29;;;;;;;8.88;4.07;;;;;;;9.90;100.00;98886.41;6123280;28;20041;-72
2023/10/26 08:59:27;;;;;;;5.20;3.00;;;;;;;9.88;100.00;98883.16;6125262;28;20127;-71
2023/10/26 09:02:22;;;;;;;10.02;4.55;;;;;;;9.98;100.00;98899.53;6119344;28;20033;-71
2023/10/26 09:05:18;;;;;;;5.87;2.90;;;;;;;9.90;100.00;98887.25;6119290;28;20487;-72
2023/10/26 09:08:17;;;;;;;5.83;3.30;;;;;;;9.91;100.00;98877.47;6119942;28;20033;-72
2023/10/26 09:11:25;;;;;;;6.00;3.58;;;;;;;9.94;100.00;98887.72;6124312;28;20258;-72
2023/10/26 09:14:22;;;;;;;14.45;6.50;;;;;;;9.96;100.00;98881.22;6127590;28;20074;-72
2023/10/26 09:17:25;;;;;;;7.50;3.90;;;;;;;9.88;100.00;98873.38;6124525;28;20082;-72
2023/10/26 09:20:21;;;;;;;7.72;4.03;;;;;;;10.07;100.00;98891.31;6120744;28;20506;-73
2023/10/26 09:23:27;;;;;;;6.60;3.50;;;;;;;9.96;100.00;98890.97;6125214;28;20025;-73
2023/10/26 09:26:22;;;;;;;7.78;4.22;;;;;;;9.91;100.00;98883.59;6120944;28;20028;-73
2023/10/26 09:29:18;;;;;;;8.40;4.00;;;;;;;9.91;100.00;98885.44;6121845;28;20464;-73
2023/10/26 09:32:13;;;;;;;10.43;5.00;;;;;;;9.93;100.00;98886.06;6121673;28;20038;-72
2023/10/26 09:35:09;;;;;;;11.53;6.23;;;;;;;10.02;100.00;98877.00;6128094;28;20035;-72
2023/10/26 09:38:05;;;;;;;8.10;4.70;;;;;;;9.98;100.00;98879.19;6102978;28;20036;-73
2023/10/26 09:41:00;;;;;;;4.28;2.65;;;;;;;10.14;100.00;98891.41;6121664;28;20054;-72
2023/10/26 09:43:56;;;;;;;4.22;2.90;;;;;;;10.10;100.00;98885.66;6103584;28;20029;-72
2023/10/26 09:46:51;;;;;;;4.77;3.33;;;;;;;10.14;100.00;98889.56;6134199;28;20089;-73
2023/10/26 09:49:47;;;;;;;4.53;2.80;;;;;;;10.17;100.00;98891.03;6121558;28;20360;-73
2023/10/26 09:52:43;;;;;;;4.07;2.70;;;;;;;10.26;100.00;98907.63;6120314;28;20024;-72
2023/10/26 09:55:42;;;;;;;4.20;2.47;;;;;;;10.20;100.00;98901.25;6120866;28;20029;-73
2023/10/26 09:58:41;;;;;;;4.18;2.22;;;;;;;10.22;100.00;98907.16;6119837;28;20036;-73
2023/10/26 10:01:37;;;;;;;4.10;2.17;;;;;;;10.29;100.00;98912.56;6125998;28;20067;-73
2023/10/26 10:04:37;;;;;;;2.75;1.88;;;;;;;10.36;100.00;98908.13;6122713;28;20058;-73
2023/10/26 10:07:43;;;;;;;3.80;2.10;;;;;;;10.31;100.00;98916.66;6127468;28;20040;-73
2023/10/26 10:11:16;;;;;;;3.30;1.65;;;;;;;10.31;100.00;98921.94;6132541;28;20499;-73
2023/10/26 10:14:54;;;;;;;2.92;1.75;;;;;;;10.37;100.00;98917.72;6123496;28;20112;-73
2023/10/26 10:17:49;;;;;;;3.67;1.98;;;;;;;10.45;100.00;98923.72;6113205;28;20036;-73
2023/10/26 10:20:46;;;;;;;3.42;2.00;;;;;;;10.37;100.00;98909.78;6118533;28;20035;-73
2023/10/26 10:23:41;;;;;;;3.78;1.67;;;;;;;10.40;100.00;98904.94;6120132;28;20527;-73
2023/10/26 10:27:12;;;;;;;3.80;2.22;;;;;;;10.41;100.00;98916.34;6120156;28;20028;-73
2023/10/26 10:30:09;;;;;;;5.30;2.38;;;;;;;10.45;100.00;98915.78;6122723;28;20074;-73
2023/10/26 10:33:05;;;;;;;4.07;2.65;;;;;;;10.55;100.00;98918.91;6122992;28;20090;-73
2023/10/26 10:36:02;;;;;;;4.10;2.23;;;;;;;10.58;100.00;98918.53;6103015;28;20531;-73
2023/10/26 10:39:20;;;;;;;4.05;2.20;;;;;;;10.59;100.00;98900.81;6120132;28;20631;-73
2023/10/26 10:42:16;;;;;;;4.18;2.42;;;;;;;10.59;100.00;98914.91;6118116;28;20021;-73
2023/10/26 10:45:12;;;;;;;4.28;2.30;;;;;;;10.54;100.00;98903.22;6102571;28;20039;-73
2023/10/26 10:48:07;;;;;;;3.78;2.45;;;;;;;10.69;100.00;98915.38;6120568;28;20032;-73
2023/10/26 10:51:03;;;;;;;3.78;2.15;;;;;;;10.65;100.00;98908.81;6129017;28;20032;-73
2023/10/26 10:53:59;;;;;;;3.83;2.17;;;;;;;10.58;100.00;98917.72;6127406;28;20525;-73
2023/10/26 10:56:54;;;;;;;4.72;2.78;;;;;;;10.51;100.00;98901.78;6120372;28;20032;-73
2023/10/26 10:59:51;;;;;;;3.70;2.30;;;;;;;10.53;100.00;98905.06;6120077;28;20028;-73
2023/10/26 11:02:52;;;;;;;4.05;2.38;;;;;;;10.72;100.00;98911.53;6128010;28;20059;-73
2023/10/26 11:05:48;;;;;;;4.32;2.03;;;;;;;10.73;100.00;98913.19;6126475;28;20038;-73
2023/10/26 11:08:43;;;;;;;6.55;2.85;;;;;;;10.64;100.00;98895.75;6122330;28;20032;-73
2023/10/26 11:11:38;;;;;;;8.65;3.75;;;;;;;10.64;100.00;98909.00;6124849;28;20025;-73
2023/10/26 11:14:34;;;;;;;4.07;2.33;;;;;;;10.67;100.00;98912.13;6124579;28;20044;-73
2023/10/26 11:17:30;;;;;;;4.53;2.43;;;;;;;10.79;100.00;98912.38;6129242;28;20028;-73
2023/10/26 11:20:36;;;;;;;6.22;3.13;;;;;;;10.69;100.00;98915.38;6124046;28;20029;-73
2023/10/26 11:23:32;;;;;;;8.23;4.40;;;;;;;10.48;100.00;98912.75;6129845;28;20020;-72
2023/10/26 11:26:27;;;;;;;4.73;2.30;;;;;;;10.54;100.00;98922.59;6124230;28;20032;-74
2023/10/26 11:29:23;;;;;;;5.65;2.40;;;;;;;10.54;100.00;98927.06;6124118;28;20059;-72
2023/10/26 11:32:20;;;;;;;4.95;2.45;;;;;;;10.63;100.00;98937.34;6127586;28;20415;-73
2023/10/26 11:35:16;;;;;;;4.18;2.40;;;;;;;10.54;100.00;98924.44;6133489;28;20111;-72
2023/10/26 11:38:11;;;;;;;3.22;1.98;;;;;;;10.59;100.00;98933.44;6124017;28;20047;-73
2023/10/26 11:41:07;;;;;;;4.25;2.30;;;;;;;10.71;100.00;98939.03;6123846;28;20039;-73
2023/10/26 11:44:03;;;;;;;5.80;2.70;;;;;;;10.62;100.00;98924.28;6123522;28;20025;-73
2023/10/26 11:46:59;;;;;;;8.90;4.28;;;;;;;10.64;100.00;98928.41;6105841;28;20107;-72
2023/10/26 11:49:55;;;;;;;16.45;5.45;;;;;;;10.55;100.00;98929.53;6124684;28;20033;-73
2023/10/26 11:52:52;;;;;;;8.60;4.00;;;;;;;10.58;100.00;98944.22;6130337;28;20432;-73
2023/10/26 11:55:47;;;;;;;4.10;2.15;;;;;;;10.65;100.00;98945.13;6123716;28;20514;-72
2023/10/26 11:58:42;;;;;;;5.00;2.57;;;;;;;10.68;100.00;98945.53;6123372;28;20032;-73
2023/10/26 12:01:38;;;;;;;4.68;2.38;;;;;;;10.72;100.00;98938.88;6123571;28;20083;-72
2023/10/26 12:04:33;;;;;;;7.13;3.03;;;;;;;10.34;100.00;98904.84;6123200;28;20032;-72
2023/10/26 12:07:29;;;;;;;4.47;2.30;;;;;;;10.65;100.00;98935.31;6123515;28;20027;-73
2023/10/26 12:10:25;;;;;;;6.55;3.40;;;;;;;10.58;100.00;98918.53;6122811;28;20618;-73
2023/10/26 12:13:20;;;;;;;10.10;4.28;;;;;;;10.54;100.00;98925.25;6126149;28;20093;-73
2023/10/26 12:16:15;;;;;;;5.07;2.70;;;;;;;10.75;100.00;98938.50;6130246;28;20038;-73
2023/10/26 12:19:11;;;;;;;6.40;2.30;;;;;;;10.79;100.00;98935.47;6127613;28;20040;-72
2023/10/26 12:22:06;;;;;;;7.23;2.30;;;;;;;10.77;100.00;98928.50;6122835;28;20036;-73
2023/10/26 12:25:04;;;;;;;7.50;2.77;;;;;;;10.84;100.00;98933.03;6122611;28;20321;-73
2023/10/26 12:28:00;;;;;;;6.28;2.20;;;;;;;10.80;100.00;98931.78;6123986;28;20119;-73
2023/10/26 12:30:55;;;;;;;4.10;2.10;;;;;;;10.73;100.00;98942.34;6123476;28;20074;-73
2023/10/26 12:33:51;;;;;;;3.93;2.20;;;;;;;10.70;100.00;98954.16;6126126;28;20373;-73
2023/10/26 12:36:46;;;;;;;3.90;2.10;;;;;;;10.90;100.00;98953.50;6122790;28;20024;-73
2023/10/26 12:39:42;;;;;;;18.17;4.82;;;;;;;11.01;100.00;98945.00;6121936;28;20033;-73
2023/10/26 12:42:38;;;;;;;4.50;2.20;;;;;;;11.12;100.00;98957.75;6125360;28;20082;-72
2023/10/26 12:45:33;;;;;;;4.43;1.80;;;;;;;11.06;100.00;98926.69;6122722;28;20387;-73
2023/10/26 12:48:28;;;;;;;10.50;3.73;;;;;;;11.04;100.00;98941.97;6125568;28;20035;-73
2023/10/26 12:51:24;;;;;;;9.57;3.03;;;;;;;11.02;100.00;98933.38;6127096;28;20738;-74
2023/10/26 12:54:19;;;;;;;5.70;2.90;;;;;;;10.96;100.00;98936.81;6122175;28;20035;-74
2023/10/26 12:57:14;;;;;;;11.00;2.60;;;;;;;11.12;100.00;98947.13;6123929;28;20029;-75
2023/10/26 13:00:10;;;;;;;5.20;2.20;;;;;;;11.30;100.00;98950.13;6127214;28;20029;-75
2023/10/26 13:03:05;;;;;;;8.85;3.60;;;;;;;11.12;100.00;98950.59;6130223;28;20027;-73
2023/10/26 13:06:00;;;;;;;6.83;1.90;;;;;;;11.02;100.00;98944.00;6130160;28;20036;-73
2023/10/26 13:08:56;;;;;;;4.20;2.27;;;;;;;11.15;100.00;98946.75;6124860;28;20035;-73
2023/10/26 13:11:51;;;;;;;3.53;1.90;;;;;;;11.12;100.00;98947.13;6122598;28;20667;-73
2023/10/26 13:14:46;;;;;;;3.50;1.80;;;;;;;11.19;100.00;98946.19;6121563;28;20028;-73
2023/10/26 13:17:42;;;;;;;4.23;1.90;;;;;;;11.41;100.00;98951.44;6121818;28;20032;-72
2023/10/26 13:20:37;;;;;;;3.03;1.77;;;;;;;11.24;100.00;98957.03;6121173;28;20035;-73
2023/10/26 13:23:33;;;;;;;5.47;2.00;;;;;;;11.45;100.00;98942.88;6121024;28;20028;-73
2023/10/26 13:26:28;;;;;;;2.92;1.77;;;;;;;11.51;100.00;98941.28;6121625;28;20349;-73
2023/10/26 13:29:23;;;;;;;4.97;2.13;;;;;;;11.66;100.00;98955.25;6103213;28;20041;-73
2023/10/26 13:32:19;;;;;;;4.90;1.90;;;;;;;11.26;100.00;98943.56;6120230;28;20386;-73
2023/10/26 13:35:14;;;;;;;3.90;1.80;;;;;;;11.21;100.00;98952.13;6121276;28;20031;-73
2023/10/26 13:38:12;;;;;;;3.80;2.20;;;;;;;11.25;100.00;98956.00;6126182;28;20305;-73
2023/10/26 13:41:07;;;;;;;3.88;1.88;;;;;;;11.13;100.00;98956.75;6121535;28;20491;-73